sensor_id;sensor_type;location;lat;lon;timestamp;pressure;altitude;pressure_sealevel;temperature;humidity
40490;BME280;26196;52.302;10.572;2023-08-20T00:00:09;101123.91;;;26.93;59.88
40490;BME280;26196;52.302;10.572;2023-08-20T00:04:10;101127.72;;;26.90;59.81
40490;BME280;26196;52.302;10.572;2023-08-20T00:08:11;101120.75;;;26.78;59.66
40490;BME280;26196;52.302;10.572;2023-08-20T00:12:45;101136.22;;;26.86;59.54
40490;BME280;26196;52.302;10.572;2023-08-20T00:16:46;101140.41;;;26.78;59.83
40490;BME280;26196;52.302;10.572;2023-08-20T00:20:46;101131.75;;;26.75;59.63
40490;BME280;26196;52.302;10.572;2023-08-20T00:24:47;101136.13;;;26.76;59.58
40490;BME280;26196;52.302;10.572;2023-08-20T00:28:47;101132.72;;;26.74;59.19
40490;BME280;26196;52.302;10.572;2023-08-20T00:32:48;101130.44;;;26.69;59.72
40490;BME280;26196;52.302;10.572;2023-08-20T00:36:49;101038.63;;;26.01;59.47
40490;BME280;26196;52.302;10.572;2023-08-20T00:40:49;101136.25;;;26.53;59.56
40490;BME280;26196;52.302;10.572;2023-08-20T00:44:50;101059.84;;;26.04;59.60
40490;BME280;26196;52.302;10.572;2023-08-20T00:48:50;101172.03;;;26.75;59.54
40490;BME280;26196;52.302;10.572;2023-08-20T00:52:50;101068.88;;;26.03;59.59
40490;BME280;26196;52.302;10.572;2023-08-20T00:56:51;101032.88;;;25.85;59.46
40490;BME280;26196;52.302;10.572;2023-08-20T01:00:51;101067.25;;;26.12;59.38
40490;BME280;26196;52.302;10.572;2023-08-20T01:04:52;101044.06;;;25.90;59.52
40490;BME280;26196;52.302;10.572;2023-08-20T01:13:30;101154.09;;;26.54;59.82
40490;BME280;26196;52.302;10.572;2023-08-20T01:17:30;101126.53;;;26.41;59.58
40490;BME280;26196;52.302;10.572;2023-08-20T01:30:31;101170.78;;;26.58;59.78
40490;BME280;26196;52.302;10.572;2023-08-20T01:39:06;101179.34;;;26.52;59.53
40490;BME280;26196;52.302;10.572;2023-08-20T01:43:07;101182.72;;;26.54;59.37
40490;BME280;26196;52.302;10.572;2023-08-20T01:47:08;101158.50;;;26.33;59.40
40490;BME280;26196;52.302;10.572;2023-08-20T01:51:42;101204.09;;;26.55;59.33
40490;BME280;26196;52.302;10.572;2023-08-20T01:55:42;101194.50;;;26.41;59.50
40490;BME280;26196;52.302;10.572;2023-08-20T01:59:43;101184.66;;;26.31;59.38
40490;BME280;26196;52.302;10.572;2023-08-20T02:03:43;101203.97;;;26.46;59.68
40490;BME280;26196;52.302;10.572;2023-08-20T02:12:21;101190.97;;;26.41;59.57
40490;BME280;26196;52.302;10.572;2023-08-20T02:16:21;101191.06;;;26.39;59.48
40490;BME280;26196;52.302;10.572;2023-08-20T02:20:22;101166.25;;;26.26;59.30
40490;BME280;26196;52.302;10.572;2023-08-20T02:24:57;101199.72;;;26.43;59.36
40490;BME280;26196;52.302;10.572;2023-08-20T02:28:57;101180.13;;;26.31;59.54
40490;BME280;26196;52.302;10.572;2023-08-20T02:32:58;101176.72;;;26.29;59.40
40490;BME280;26196;52.302;10.572;2023-08-20T02:36:58;101182.19;;;26.28;59.55
40490;BME280;26196;52.302;10.572;2023-08-20T02:40:58;101189.41;;;26.27;59.30
40490;BME280;26196;52.302;10.572;2023-08-20T02:44:59;101152.00;;;26.14;59.29
40490;BME280;26196;52.302;10.572;2023-08-20T02:48:59;101140.94;;;26.08;59.41
40490;BME280;26196;52.302;10.572;2023-08-20T02:52:59;101176.34;;;26.23;59.34
40490;BME280;26196;52.302;10.572;2023-08-20T02:57:34;101188.28;;;26.30;59.21
40490;BME280;26196;52.302;10.572;2023-08-20T03:01:34;101141.09;;;25.95;59.41
40490;BME280;26196;52.302;10.572;2023-08-20T03:05:35;101182.59;;;26.23;59.16
40490;BME280;26196;52.302;10.572;2023-08-20T03:09:35;101164.22;;;26.07;59.30
40490;BME280;26196;52.302;10.572;2023-08-20T03:13:36;101188.94;;;26.22;59.33
40490;BME280;26196;52.302;10.572;2023-08-20T03:17:36;101177.25;;;26.12;59.26
40490;BME280;26196;52.302;10.572;2023-08-20T03:21:36;101164.13;;;25.97;59.21
40490;BME280;26196;52.302;10.572;2023-08-20T03:25:38;101196.03;;;26.12;59.11
40490;BME280;26196;52.302;10.572;2023-08-20T03:29:38;101162.66;;;25.82;59.20
40490;BME280;26196;52.302;10.572;2023-08-20T03:33:39;101194.97;;;26.03;59.13
40490;BME280;26196;52.302;10.572;2023-08-20T03:37:39;101194.97;;;26.03;59.02
40490;BME280;26196;52.302;10.572;2023-08-20T03:41:39;101180.47;;;25.94;58.85
40490;BME280;26196;52.302;10.572;2023-08-20T03:45:39;101168.78;;;25.84;58.98
40490;BME280;26196;52.302;10.572;2023-08-20T03:49:40;101181.09;;;25.87;58.92
40490;BME280;26196;52.302;10.572;2023-08-20T03:54:14;101210.78;;;26.06;58.84
40490;BME280;26196;52.302;10.572;2023-08-20T03:58:15;101217.16;;;26.05;58.75
40490;BME280;26196;52.302;10.572;2023-08-20T04:02:15;101210.84;;;25.95;58.63
40490;BME280;26196;52.302;10.572;2023-08-20T04:10:53;101203.41;;;25.87;58.72
40490;BME280;26196;52.302;10.572;2023-08-20T04:14:53;101221.06;;;25.90;58.61
40490;BME280;26196;52.302;10.572;2023-08-20T04:18:53;101232.28;;;25.95;58.45
40490;BME280;26196;52.302;10.572;2023-08-20T04:22:54;101236.19;;;25.91;58.49
40490;BME280;26196;52.302;10.572;2023-08-20T04:26:55;101248.38;;;25.95;58.47
40490;BME280;26196;52.302;10.572;2023-08-20T04:30:55;101254.97;;;25.91;58.54
40490;BME280;26196;52.302;10.572;2023-08-20T04:34:56;101212.03;;;25.57;58.64
40490;BME280;26196;52.302;10.572;2023-08-20T04:38:56;101208.38;;;25.58;58.56
40490;BME280;26196;52.302;10.572;2023-08-20T04:42:57;101238.38;;;25.63;58.61
40490;BME280;26196;52.302;10.572;2023-08-20T04:47:31;101272.16;;;25.88;58.44
40490;BME280;26196;52.302;10.572;2023-08-20T04:51:32;101261.78;;;25.84;58.44
40490;BME280;26196;52.302;10.572;2023-08-20T04:55:32;101284.19;;;25.83;58.52
40490;BME280;26196;52.302;10.572;2023-08-20T05:00:06;101286.03;;;25.82;58.58
40490;BME280;26196;52.302;10.572;2023-08-20T05:04:07;101254.81;;;25.70;58.67
40490;BME280;26196;52.302;10.572;2023-08-20T05:08:41;101278.97;;;25.81;58.83
40490;BME280;26196;52.302;10.572;2023-08-20T05:13:18;101285.41;;;25.79;58.90
40490;BME280;26196;52.302;10.572;2023-08-20T05:17:54;101281.75;;;25.80;58.94
40490;BME280;26196;52.302;10.572;2023-08-20T05:21:54;101266.88;;;25.75;58.87
40490;BME280;26196;52.302;10.572;2023-08-20T05:26:29;101287.22;;;25.78;58.93
40490;BME280;26196;52.302;10.572;2023-08-20T05:30:29;101280.78;;;25.69;59.03
40490;BME280;26196;52.302;10.572;2023-08-20T05:39:07;101258.34;;;25.59;59.08
40490;BME280;26196;52.302;10.572;2023-08-20T05:43:07;101280.03;;;25.67;58.98
40490;BME280;26196;52.302;10.572;2023-08-20T05:47:08;101294.41;;;25.66;59.11
40490;BME280;26196;52.302;10.572;2023-08-20T05:51:08;101281.97;;;25.54;59.11
40490;BME280;26196;52.302;10.572;2023-08-20T05:55:45;101319.66;;;25.75;59.20
40490;BME280;26196;52.302;10.572;2023-08-20T05:59:46;101295.88;;;25.59;59.18
40490;BME280;26196;52.302;10.572;2023-08-20T06:04:20;101318.91;;;25.73;59.15
40490;BME280;26196;52.302;10.572;2023-08-20T06:08:58;101315.38;;;25.72;59.09
40490;BME280;26196;52.302;10.572;2023-08-20T06:13:35;101325.16;;;25.73;59.10
40490;BME280;26196;52.302;10.572;2023-08-20T06:18:13;101312.69;;;25.72;59.18
40490;BME280;26196;52.302;10.572;2023-08-20T06:22:13;101291.59;;;25.57;59.01
40490;BME280;26196;52.302;10.572;2023-08-20T06:26:13;101289.41;;;25.62;58.99
40490;BME280;26196;52.302;10.572;2023-08-20T06:34:51;101284.91;;;25.62;58.75
40490;BME280;26196;52.302;10.572;2023-08-20T06:39:29;101288.06;;;25.67;58.86
40490;BME280;26196;52.302;10.572;2023-08-20T06:48:40;101278.59;;;25.63;59.30
40490;BME280;26196;52.302;10.572;2023-08-20T06:53:18;101285.88;;;25.61;59.24
40490;BME280;26196;52.302;10.572;2023-08-20T07:02:29;101270.53;;;25.63;59.11
40490;BME280;26196;52.302;10.572;2023-08-20T07:07:07;101280.28;;;25.64;59.06
40490;BME280;26196;52.302;10.572;2023-08-20T07:11:08;101281.63;;;25.59;58.99
40490;BME280;26196;52.302;10.572;2023-08-20T07:15:08;101296.38;;;25.64;58.95
40490;BME280;26196;52.302;10.572;2023-08-20T07:19:43;101294.66;;;25.63;58.30
40490;BME280;26196;52.302;10.572;2023-08-20T07:23:43;101285.63;;;25.53;57.94
40490;BME280;26196;52.302;10.572;2023-08-20T07:27:44;101282.22;;;25.51;57.84
40490;BME280;26196;52.302;10.572;2023-08-20T07:32:21;101318.78;;;25.63;57.86
40490;BME280;26196;52.302;10.572;2023-08-20T07:36:55;101317.06;;;25.62;57.96
40490;BME280;26196;52.302;10.572;2023-08-20T07:41:31;101308.91;;;25.64;57.70
40490;BME280;26196;52.302;10.572;2023-08-20T07:45:31;101300.13;;;25.62;57.67
40490;BME280;26196;52.302;10.572;2023-08-20T07:50:05;101298.31;;;25.62;57.26
40490;BME280;26196;52.302;10.572;2023-08-20T07:54:06;101270.25;;;25.44;57.12
40490;BME280;26196;52.302;10.572;2023-08-20T07:58:06;101273.69;;;25.46;57.10
40490;BME280;26196;52.302;10.572;2023-08-20T08:02:40;101306.47;;;25.61;57.07
40490;BME280;26196;52.302;10.572;2023-08-20T08:06:41;101285.63;;;25.53;57.17
40490;BME280;26196;52.302;10.572;2023-08-20T08:11:15;101304.66;;;25.61;56.97
40490;BME280;26196;52.302;10.572;2023-08-20T08:15:16;101296.59;;;25.50;56.73
40490;BME280;26196;52.302;10.572;2023-08-20T08:19:17;101314.28;;;25.64;56.94
40490;BME280;26196;52.302;10.572;2023-08-20T08:23:17;101325.00;;;25.64;56.84
40490;BME280;26196;52.302;10.572;2023-08-20T08:27:18;101274.16;;;25.40;57.13
40490;BME280;26196;52.302;10.572;2023-08-20T08:31:18;101315.38;;;25.72;56.95
40490;BME280;26196;52.302;10.572;2023-08-20T08:35:52;101307.59;;;25.69;56.81
40490;BME280;26196;52.302;10.572;2023-08-20T08:45:04;101303.91;;;25.70;56.63
40490;BME280;26196;52.302;10.572;2023-08-20T08:49:39;101306.59;;;25.70;56.54
40490;BME280;26196;52.302;10.572;2023-08-20T08:54:17;101308.44;;;25.70;56.88
40490;BME280;26196;52.302;10.572;2023-08-20T08:58:52;101314.63;;;25.70;56.22
40490;BME280;26196;52.302;10.572;2023-08-20T09:03:29;101319.91;;;25.72;56.61
40490;BME280;26196;52.302;10.572;2023-08-20T09:31:44;101271.50;;;25.51;56.54
40490;BME280;26196;52.302;10.572;2023-08-20T09:41:02;101307.47;;;25.82;56.50
40490;BME280;26196;52.302;10.572;2023-08-20T09:45:40;101315.53;;;25.82;56.38
40490;BME280;26196;52.302;10.572;2023-08-20T09:49:43;101276.59;;;25.65;55.99
40490;BME280;26196;52.302;10.572;2023-08-20T09:53:53;101307.59;;;25.81;56.38
40490;BME280;26196;52.302;10.572;2023-08-20T09:57:56;101255.41;;;25.51;55.99
40490;BME280;26196;52.302;10.572;2023-08-20T10:01:57;101248.34;;;25.50;56.45
40490;BME280;26196;52.302;10.572;2023-08-20T10:05:58;101276.59;;;25.65;56.30
40490;BME280;26196;52.302;10.572;2023-08-20T10:10:05;101282.59;;;25.69;56.60
40490;BME280;26196;52.302;10.572;2023-08-20T10:14:36;101303.97;;;25.93;56.09
40490;BME280;26196;52.302;10.572;2023-08-20T10:19:10;101302.28;;;25.92;56.94
40490;BME280;26196;52.302;10.572;2023-08-20T10:28:26;101292.41;;;25.92;56.19
40490;BME280;26196;52.302;10.572;2023-08-20T10:37:27;101292.03;;;25.97;55.77
40490;BME280;26196;52.302;10.572;2023-08-20T10:41:31;101265.56;;;25.81;55.71
40490;BME280;26196;52.302;10.572;2023-08-20T10:46:08;101293.47;;;26.01;55.65
40490;BME280;26196;52.302;10.572;2023-08-20T10:50:43;101295.22;;;26.02;53.56
40490;BME280;26196;52.302;10.572;2023-08-20T10:59:58;101288.75;;;26.05;55.86
40490;BME280;26196;52.302;10.572;2023-08-20T11:04:35;101290.53;;;26.04;54.58
40490;BME280;26196;52.302;10.572;2023-08-20T11:08:37;101265.81;;;25.89;53.64
40490;BME280;26196;52.302;10.572;2023-08-20T11:12:37;101284.59;;;26.01;54.91
40490;BME280;26196;52.302;10.572;2023-08-20T11:16:38;101262.16;;;25.90;55.13
40490;BME280;26196;52.302;10.572;2023-08-20T11:21:15;101293.00;;;26.07;55.98
40490;BME280;26196;52.302;10.572;2023-08-20T11:25:50;101301.75;;;26.09;55.82
40490;BME280;26196;52.302;10.572;2023-08-20T11:29:52;101299.09;;;26.09;53.39
40490;BME280;26196;52.302;10.572;2023-08-20T11:34:27;101302.75;;;26.08;51.90
40490;BME280;26196;52.302;10.572;2023-08-20T11:39:05;101292.75;;;26.10;54.75
40490;BME280;26196;52.302;10.572;2023-08-20T11:43:42;101288.97;;;26.13;55.65
40490;BME280;26196;52.302;10.572;2023-08-20T11:48:20;101291.75;;;26.11;53.39
40490;BME280;26196;52.302;10.572;2023-08-20T11:52:55;101286.53;;;26.10;52.83
40490;BME280;26196;52.302;10.572;2023-08-20T11:57:04;101273.59;;;26.04;52.75
40490;BME280;26196;52.302;10.572;2023-08-20T12:01:31;101292.41;;;26.15;53.95
40490;BME280;26196;52.302;10.572;2023-08-20T12:10:44;101282.25;;;26.18;54.60
40490;BME280;26196;52.302;10.572;2023-08-20T12:14:44;101283.34;;;26.16;54.81
40490;BME280;26196;52.302;10.572;2023-08-20T12:19:21;101279.56;;;26.18;54.75
40490;BME280;26196;52.302;10.572;2023-08-20T12:23:22;101267.25;;;26.16;54.26
40490;BME280;26196;52.302;10.572;2023-08-20T12:27:22;101254.47;;;26.08;52.70
40490;BME280;26196;52.302;10.572;2023-08-20T12:31:22;101258.22;;;26.17;52.35
40490;BME280;26196;52.302;10.572;2023-08-20T12:35:24;101271.53;;;26.18;52.43
40490;BME280;26196;52.302;10.572;2023-08-20T12:40:02;101271.84;;;26.25;53.54
40490;BME280;26196;52.302;10.572;2023-08-20T12:44:38;101262.00;;;26.26;52.19
40490;BME280;26196;52.302;10.572;2023-08-20T12:49:15;101262.00;;;26.26;54.04
40490;BME280;26196;52.302;10.572;2023-08-20T12:53:50;101271.50;;;26.30;54.31
40490;BME280;26196;52.302;10.572;2023-08-20T12:58:27;101255.38;;;26.30;54.33
40490;BME280;26196;52.302;10.572;2023-08-20T13:02:27;101238.31;;;26.19;53.47
40490;BME280;26196;52.302;10.572;2023-08-20T13:06:28;101255.13;;;26.33;53.05
40490;BME280;26196;52.302;10.572;2023-08-20T13:11:03;101247.06;;;26.33;52.08
40490;BME280;26196;52.302;10.572;2023-08-20T13:15:41;101249.75;;;26.33;51.79
40490;BME280;26196;52.302;10.572;2023-08-20T13:20:18;101249.75;;;26.33;51.10
40490;BME280;26196;52.302;10.572;2023-08-20T13:24:55;101256.13;;;26.32;53.79
40490;BME280;26196;52.302;10.572;2023-08-20T13:28:56;101248.59;;;26.26;51.41
40490;BME280;26196;52.302;10.572;2023-08-20T13:33:30;101260.38;;;26.34;52.80
40490;BME280;26196;52.302;10.572;2023-08-20T13:38:08;101265.50;;;26.37;54.55
40490;BME280;26196;52.302;10.572;2023-08-20T13:42:08;101243.69;;;26.31;53.78
40490;BME280;26196;52.302;10.572;2023-08-20T13:46:43;101249.03;;;26.42;53.45
40490;BME280;26196;52.302;10.572;2023-08-20T13:51:20;101247.19;;;26.42;51.87
40490;BME280;26196;52.302;10.572;2023-08-20T13:55:21;101217.59;;;26.22;50.60
40490;BME280;26196;52.302;10.572;2023-08-20T14:04:33;101237.56;;;26.40;53.60
40490;BME280;26196;52.302;10.572;2023-08-20T14:13:11;101219.03;;;26.37;50.67
40490;BME280;26196;52.302;10.572;2023-08-20T14:17:45;101229.97;;;26.45;53.52
40490;BME280;26196;52.302;10.572;2023-08-20T14:21:45;101213.41;;;26.40;51.16
40490;BME280;26196;52.302;10.572;2023-08-20T14:26:20;101219.81;;;26.49;51.50
40490;BME280;26196;52.302;10.572;2023-08-20T14:30:20;101209.03;;;26.39;51.53
40490;BME280;26196;52.302;10.572;2023-08-20T14:39:32;101222.31;;;26.52;50.75
40490;BME280;26196;52.302;10.572;2023-08-20T14:43:33;101206.06;;;26.53;51.48
40490;BME280;26196;52.302;10.572;2023-08-20T14:47:33;101211.41;;;26.53;51.30
40490;BME280;26196;52.302;10.572;2023-08-20T14:52:08;101205.09;;;26.54;53.13
40490;BME280;26196;52.302;10.572;2023-08-20T14:56:45;101204.84;;;26.57;51.33
40490;BME280;26196;52.302;10.572;2023-08-20T15:05:59;101192.84;;;26.61;53.63
40490;BME280;26196;52.302;10.572;2023-08-20T15:10:34;101184.41;;;26.66;51.20
40490;BME280;26196;52.302;10.572;2023-08-20T15:19:48;101195.88;;;26.68;53.55
40490;BME280;26196;52.302;10.572;2023-08-20T15:24:23;101198.44;;;26.70;52.82
40490;BME280;26196;52.302;10.572;2023-08-20T15:28:58;101196.22;;;26.75;53.14
40490;BME280;26196;52.302;10.572;2023-08-20T15:33:35;101193.53;;;26.75;51.94
40490;BME280;26196;52.302;10.572;2023-08-20T15:42:47;101182.78;;;26.75;52.14
40490;BME280;26196;52.302;10.572;2023-08-20T15:47:25;101169.34;;;26.75;51.99
40490;BME280;26196;52.302;10.572;2023-08-20T15:51:25;101142.53;;;26.63;52.89
40490;BME280;26196;52.302;10.572;2023-08-20T15:56:03;101161.03;;;26.78;51.46
40490;BME280;26196;52.302;10.572;2023-08-20T16:00:03;101147.41;;;26.70;51.55
40490;BME280;26196;52.302;10.572;2023-08-20T16:04:38;101153.66;;;26.80;52.47
40490;BME280;26196;52.302;10.572;2023-08-20T16:09:16;101146.34;;;26.82;53.01
40490;BME280;26196;52.302;10.572;2023-08-20T16:13:51;101140.97;;;26.82;52.32
40490;BME280;26196;52.302;10.572;2023-08-20T16:17:51;101128.34;;;26.73;51.83
40490;BME280;26196;52.302;10.572;2023-08-20T16:22:29;101148.06;;;26.83;53.55
40490;BME280;26196;52.302;10.572;2023-08-20T16:27:04;101146.69;;;26.89;53.80
40490;BME280;26196;52.302;10.572;2023-08-20T16:31:38;101150.09;;;26.91;53.66
40490;BME280;26196;52.302;10.572;2023-08-20T16:35:38;101128.34;;;26.73;53.00
40490;BME280;26196;52.302;10.572;2023-08-20T16:49:28;101160.97;;;26.89;51.37
40490;BME280;26196;52.302;10.572;2023-08-20T16:54:06;101166.59;;;26.86;52.74
40490;BME280;26196;52.302;10.572;2023-08-20T16:58:41;101169.28;;;26.86;51.20
40490;BME280;26196;52.302;10.572;2023-08-20T17:03:18;101170.41;;;26.83;50.51
40490;BME280;26196;52.302;10.572;2023-08-20T17:07:56;101164.19;;;26.83;50.84
40490;BME280;26196;52.302;10.572;2023-08-20T17:12:30;101172.25;;;26.83;51.35
40490;BME280;26196;52.302;10.572;2023-08-20T17:21:08;101152.53;;;26.73;52.24
40490;BME280;26196;52.302;10.572;2023-08-20T17:25:08;101153.47;;;26.72;52.69
40490;BME280;26196;52.302;10.572;2023-08-20T17:29:46;101177.47;;;26.84;53.36
40490;BME280;26196;52.302;10.572;2023-08-20T17:33:47;101146.31;;;26.72;53.63
40490;BME280;26196;52.302;10.572;2023-08-20T17:38:21;101164.75;;;26.87;53.60
40490;BME280;26196;52.302;10.572;2023-08-20T17:42:57;101164.75;;;26.87;53.72
40490;BME280;26196;52.302;10.572;2023-08-20T17:47:35;101166.59;;;26.86;53.39
40490;BME280;26196;52.302;10.572;2023-08-20T17:52:10;101159.38;;;26.87;53.67
40490;BME280;26196;52.302;10.572;2023-08-20T17:56:45;101172.94;;;26.85;53.52
40490;BME280;26196;52.302;10.572;2023-08-20T18:01:22;101168.56;;;26.84;53.41
40490;BME280;26196;52.302;10.572;2023-08-20T18:05:23;101162.72;;;26.79;53.44
40490;BME280;26196;52.302;10.572;2023-08-20T18:09:58;101175.16;;;26.80;53.99
40490;BME280;26196;52.302;10.572;2023-08-20T18:14:32;101173.75;;;26.76;54.25
40490;BME280;26196;52.302;10.572;2023-08-20T18:23:46;101177.16;;;26.78;54.73
40490;BME280;26196;52.302;10.572;2023-08-20T18:27:47;101180.09;;;26.75;55.04
40490;BME280;26196;52.302;10.572;2023-08-20T18:32:21;101189.00;;;26.75;55.02
40490;BME280;26196;52.302;10.572;2023-08-20T18:36:59;101185.72;;;26.72;55.23
40490;BME280;26196;52.302;10.572;2023-08-20T18:41:00;101191.81;;;26.74;55.17
40490;BME280;26196;52.302;10.572;2023-08-20T18:45:01;101182.09;;;26.61;55.26
40490;BME280;26196;52.302;10.572;2023-08-20T18:54:12;101199.28;;;26.70;55.72
40490;BME280;26196;52.302;10.572;2023-08-20T18:58:48;101207.47;;;26.69;55.98
40490;BME280;26196;52.302;10.572;2023-08-20T19:07:59;101204.78;;;26.69;56.01
40490;BME280;26196;52.302;10.572;2023-08-20T19:12:36;101208.72;;;26.65;55.93
40490;BME280;26196;52.302;10.572;2023-08-20T19:21:51;101225.06;;;26.61;56.03
40490;BME280;26196;52.302;10.572;2023-08-20T19:26:26;101229.97;;;26.56;56.19
40490;BME280;26196;52.302;10.572;2023-08-20T19:30:26;101217.13;;;26.49;56.06
40490;BME280;26196;52.302;10.572;2023-08-20T19:34:30;101215.59;;;26.46;56.09
40490;BME280;26196;52.302;10.572;2023-08-20T19:38:31;101196.22;;;26.31;56.01
40490;BME280;26196;52.302;10.572;2023-08-20T19:42:31;101221.91;;;26.45;56.04
40490;BME280;26196;52.302;10.572;2023-08-20T19:47:09;101236.66;;;26.51;55.98
40490;BME280;26196;52.302;10.572;2023-08-20T19:51:09;101225.84;;;26.41;55.89
40490;BME280;26196;52.302;10.572;2023-08-20T19:55:10;101192.72;;;26.19;55.93
40490;BME280;26196;52.302;10.572;2023-08-20T19:59:10;101247.81;;;26.46;55.74
40490;BME280;26196;52.302;10.572;2023-08-20T20:03:44;101249.75;;;26.44;55.78
40490;BME280;26196;52.302;10.572;2023-08-20T20:07:45;101257.06;;;26.42;55.91
40490;BME280;26196;52.302;10.572;2023-08-20T20:11:45;101228.34;;;26.22;55.80
40490;BME280;26196;52.302;10.572;2023-08-20T20:15:46;101230.28;;;26.19;55.70
40490;BME280;26196;52.302;10.572;2023-08-20T20:19:46;101275.97;;;26.40;55.69
40490;BME280;26196;52.302;10.572;2023-08-20T20:24:23;101272.59;;;26.38;55.69
40490;BME280;26196;52.302;10.572;2023-08-20T20:28:23;101263.69;;;26.27;55.63
40490;BME280;26196;52.302;10.572;2023-08-20T20:32:23;101251.28;;;26.26;55.77
40490;BME280;26196;52.302;10.572;2023-08-20T20:36:23;101282.22;;;26.30;55.72
40490;BME280;26196;52.302;10.572;2023-08-20T20:40:24;101281.84;;;26.34;55.73
40490;BME280;26196;52.302;10.572;2023-08-20T20:44:24;101269.06;;;26.27;56.02
40490;BME280;26196;52.302;10.572;2023-08-20T20:48:25;101276.75;;;26.31;55.81
40490;BME280;26196;52.302;10.572;2023-08-20T20:52:25;101272.84;;;26.24;56.00
40490;BME280;26196;52.302;10.572;2023-08-20T20:56:59;101275.16;;;26.29;55.90
40490;BME280;26196;52.302;10.572;2023-08-20T21:01:00;101268.59;;;26.22;55.87
40490;BME280;26196;52.302;10.572;2023-08-20T21:05:00;101243.13;;;26.05;55.93
40490;BME280;26196;52.302;10.572;2023-08-20T21:09:35;101284.44;;;26.25;55.98
40490;BME280;26196;52.302;10.572;2023-08-20T21:13:35;101280.56;;;26.17;56.02
40490;BME280;26196;52.302;10.572;2023-08-20T21:17:35;101264.19;;;26.09;56.09
40490;BME280;26196;52.302;10.572;2023-08-20T21:21:40;101272.38;;;26.08;56.06
40490;BME280;26196;52.302;10.572;2023-08-20T21:25:40;101282.97;;;26.09;56.10
40490;BME280;26196;52.302;10.572;2023-08-20T21:30:15;101294.34;;;26.13;55.97
40490;BME280;26196;52.302;10.572;2023-08-20T21:34:15;101276.03;;;26.07;55.68
40490;BME280;26196;52.302;10.572;2023-08-20T21:38:16;101292.03;;;26.08;55.48
40490;BME280;26196;52.302;10.572;2023-08-20T21:42:17;101289.59;;;26.05;55.51
40490;BME280;26196;52.302;10.572;2023-08-20T21:46:18;101286.75;;;26.07;55.27
40490;BME280;26196;52.302;10.572;2023-08-20T21:50:52;101292.50;;;26.13;55.26
40490;BME280;26196;52.302;10.572;2023-08-20T21:54:53;101289.59;;;26.05;55.02
40490;BME280;26196;52.302;10.572;2023-08-20T21:58:53;101288.84;;;26.03;54.97
40490;BME280;26196;52.302;10.572;2023-08-20T22:02:53;101308.38;;;26.05;54.88
40490;BME280;26196;52.302;10.572;2023-08-20T22:07:28;101318.25;;;26.05;54.90
40490;BME280;26196;52.302;10.572;2023-08-20T22:11:28;101310.06;;;25.95;54.71
40490;BME280;26196;52.302;10.572;2023-08-20T22:15:29;101318.72;;;25.98;54.72
40490;BME280;26196;52.302;10.572;2023-08-20T22:19:29;101311.28;;;25.91;54.65
40490;BME280;26196;52.302;10.572;2023-08-20T22:23:30;101288.47;;;25.74;54.67
40490;BME280;26196;52.302;10.572;2023-08-20T22:27:30;101310.06;;;25.84;54.45
40490;BME280;26196;52.302;10.572;2023-08-20T22:31:31;101291.75;;;25.66;54.40
40490;BME280;26196;52.302;10.572;2023-08-20T22:35:32;101216.84;;;25.18;54.44
40490;BME280;26196;52.302;10.572;2023-08-20T22:40:09;101348.97;;;25.89;54.52
40490;BME280;26196;52.302;10.572;2023-08-20T22:44:10;101317.09;;;25.73;54.40
40490;BME280;26196;52.302;10.572;2023-08-20T22:48:10;101338.06;;;25.80;54.41
40490;BME280;26196;52.302;10.572;2023-08-20T22:52:11;101315.72;;;25.68;54.21
40490;BME280;26196;52.302;10.572;2023-08-20T22:56:48;101351.22;;;25.83;54.34
40490;BME280;26196;52.302;10.572;2023-08-20T23:00:48;101340.00;;;25.77;54.49
40490;BME280;26196;52.302;10.572;2023-08-20T23:04:49;101344.63;;;25.75;54.30
40490;BME280;26196;52.302;10.572;2023-08-20T23:08:49;101337.81;;;25.71;54.41
40490;BME280;26196;52.302;10.572;2023-08-20T23:12:49;101328.53;;;25.64;54.57
40490;BME280;26196;52.302;10.572;2023-08-20T23:17:24;101350.00;;;25.75;54.48
40490;BME280;26196;52.302;10.572;2023-08-20T23:21:24;101350.38;;;25.71;54.37
40490;BME280;26196;52.302;10.572;2023-08-20T23:25:24;101306.69;;;25.46;54.54
40490;BME280;26196;52.302;10.572;2023-08-20T23:29:25;101326.78;;;25.52;54.44
40490;BME280;26196;52.302;10.572;2023-08-20T23:33:25;101347.06;;;25.67;54.56
40490;BME280;26196;52.302;10.572;2023-08-20T23:37:25;101316.56;;;25.46;54.52
40490;BME280;26196;52.302;10.572;2023-08-20T23:41:26;101334.88;;;25.63;54.51
40490;BME280;26196;52.302;10.572;2023-08-20T23:45:26;101259.19;;;25.13;54.58
40490;BME280;26196;52.302;10.572;2023-08-20T23:50:01;101351.56;;;25.67;54.81
40490;BME280;26196;52.302;10.572;2023-08-20T23:54:01;101349.00;;;25.65;54.64
40490;BME280;26196;52.302;10.572;2023-08-20T23:58:01;101339.50;;;25.61;54.79
